Time;durP1;ratioP1;P1;durP2;ratioP2;P2;SDS_P1;SDS_P2;PMS_P1;PMS_P2;Temp;Humidity;BMP_temperature;BMP_pressure;BME280_temperature;BME280_humidity;BME280_pressure;Samples;Min_cycle;Max_cycle;Signal;HPM_P1;HPM_P2
2022/12/04 00:02:15;;;;;;;6.35;4.28;;;6.50;89.80;;;;;;5048917;28;20241;-49
2022/12/04 00:04:44;;;;;;;3.78;2.83;;;6.50;89.70;;;;;;5055773;28;20228;-49
2022/12/04 00:07:12;;;;;;;4.65;3.50;;;6.50;89.70;;;;;;5023190;28;20619;-49
2022/12/04 00:09:41;;;;;;;5.00;4.38;;;6.50;89.70;;;;;;5000701;28;20300;-50
2022/12/04 00:12:10;;;;;;;3.95;3.55;;;6.50;89.80;;;;;;5006234;28;20436;-50
2022/12/04 00:14:38;;;;;;;6.97;3.17;;;6.50;89.80;;;;;;5005514;28;20313;-50
2022/12/04 00:17:28;;;;;;;5.82;3.92;;;6.50;89.80;;;;;;4998682;28;20601;-51
2022/12/04 00:19:57;;;;;;;4.07;3.33;;;6.50;89.80;;;;;;5007533;28;20201;-51
2022/12/04 00:22:25;;;;;;;6.25;4.13;;;6.50;89.80;;;;;;5008576;28;20511;-52
2022/12/04 00:24:54;;;;;;;6.88;4.45;;;6.50;89.80;;;;;;5008825;28;20264;-50
2022/12/04 00:27:23;;;;;;;4.45;4.00;;;6.50;90.40;;;;;;5006450;28;20732;-50
2022/12/04 00:29:51;;;;;;;4.85;3.40;;;6.50;89.90;;;;;;5002990;28;20218;-51
2022/12/04 00:32:20;;;;;;;6.18;4.18;;;6.50;89.80;;;;;;5013169;28;20275;-49
2022/12/04 00:34:53;;;;;;;5.05;4.25;;;6.50;89.80;;;;;;5007401;28;20220;-49
2022/12/04 00:37:22;;;;;;;3.95;3.33;;;6.50;89.80;;;;;;5016277;28;20256;-48
2022/12/04 00:39:50;;;;;;;5.40;3.90;;;6.50;89.80;;;;;;5022518;28;20247;-50
2022/12/04 00:42:19;;;;;;;6.47;3.67;;;6.50;89.90;;;;;;5023569;28;20235;-49
2022/12/04 00:44:47;;;;;;;6.10;3.95;;;6.50;89.80;;;;;;5005381;28;20206;-49
2022/12/04 00:47:16;;;;;;;6.18;3.47;;;6.50;89.80;;;;;;5012781;28;20252;-51
2022/12/04 00:49:45;;;;;;;5.82;4.10;;;6.50;89.90;;;;;;5006087;28;20218;-49
2022/12/04 00:52:15;;;;;;;3.92;3.40;;;6.50;89.80;;;;;;5005413;28;20201;-50
2022/12/04 00:54:44;;;;;;;6.05;4.30;;;6.50;89.80;;;;;;5005131;28;20305;-49
2022/12/04 00:57:12;;;;;;;4.75;3.47;;;6.50;89.90;;;;;;5005612;28;20220;-50
2022/12/04 00:59:41;;;;;;;4.45;4.05;;;6.50;89.80;;;;;;5004387;28;20186;-52
2022/12/04 01:02:09;;;;;;;4.55;3.75;;;6.50;89.80;;;;;;5028064;28;20274;-50
2022/12/04 01:04:38;;;;;;;6.68;4.45;;;6.50;89.80;;;;;;5026336;28;20208;-51
2022/12/04 01:07:06;;;;;;;5.72;3.92;;;6.50;89.80;;;;;;5032729;28;20204;-51
2022/12/04 01:09:36;;;;;;;4.50;3.88;;;6.50;89.70;;;;;;5026212;28;20181;-49
2022/12/04 01:12:05;;;;;;;4.50;3.58;;;6.50;89.80;;;;;;5026333;28;20189;-50
2022/12/04 01:14:34;;;;;;;5.03;3.60;;;6.50;89.80;;;;;;5024410;28;20856;-51
2022/12/04 01:17:02;;;;;;;4.05;3.50;;;6.50;89.90;;;;;;5025054;28;20229;-50
2022/12/04 01:19:31;;;;;;;4.65;3.35;;;6.50;89.80;;;;;;5019573;28;20664;-49
2022/12/04 01:21:59;;;;;;;5.53;3.83;;;6.50;89.80;;;;;;5033078;28;20199;-52
2022/12/04 01:24:28;;;;;;;5.82;3.80;;;6.50;89.80;;;;;;5026068;28;20344;-49
2022/12/04 01:26:58;;;;;;;5.65;3.80;;;6.40;90.30;;;;;;5021268;28;20630;-51
2022/12/04 01:29:27;;;;;;;6.32;3.78;;;6.50;89.80;;;;;;5005122;28;20210;-50
2022/12/04 01:31:56;;;;;;;5.53;3.55;;;6.40;89.70;;;;;;5011018;28;20200;-49
2022/12/04 01:34:24;;;;;;;6.65;4.50;;;6.40;89.60;;;;;;5007376;28;20244;-50
2022/12/04 01:36:53;;;;;;;5.80;4.55;;;6.50;89.60;;;;;;4990589;28;20552;-51
2022/12/04 01:39:22;;;;;;;6.25;4.25;;;6.50;89.60;;;;;;5036495;28;20197;-51
2022/12/04 01:41:50;;;;;;;5.03;3.95;;;6.40;89.60;;;;;;5001581;28;20194;-49
2022/12/04 01:44:22;;;;;;;5.65;4.15;;;6.40;89.70;;;;;;5004059;28;20210;-50
2022/12/04 01:46:53;;;;;;;6.55;4.30;;;6.40;89.70;;;;;;5016637;28;20205;-50
2022/12/04 01:49:28;;;;;;;5.35;3.47;;;6.40;89.40;;;;;;4999315;28;20404;-50
2022/12/04 01:52:00;;;;;;;5.40;3.97;;;6.40;90.30;;;;;;5010055;28;20201;-48
2022/12/04 01:54:32;;;;;;;5.63;3.70;;;6.50;89.70;;;;;;5037584;28;20664;-50
2022/12/04 01:57:07;;;;;;;4.97;3.90;;;6.40;89.30;;;;;;5004973;28;20279;-51
2022/12/04 01:59:42;;;;;;;5.70;4.40;;;6.40;89.50;;;;;;4997180;28;20202;-51
2022/12/04 02:02:13;;;;;;;4.13;3.42;;;6.40;89.50;;;;;;5010693;28;20239;-50
2022/12/04 02:04:43;;;;;;;5.10;3.80;;;6.40;89.60;;;;;;5008941;28;20584;-50
2022/12/04 02:07:12;;;;;;;6.38;3.92;;;6.40;89.60;;;;;;5006388;28;20232;-50
2022/12/04 02:09:42;;;;;;;6.63;4.78;;;6.40;89.60;;;;;;5015692;28;20240;-49
2022/12/04 02:12:20;;;;;;;7.40;3.97;;;6.40;89.70;;;;;;5015769;28;20594;-51
2022/12/04 02:15:01;;;;;;;6.53;5.03;;;6.40;89.50;;;;;;5012094;28;20263;-51
2022/12/04 02:17:38;;;;;;;4.35;3.03;;;6.40;89.50;;;;;;5008798;28;20331;-49
2022/12/04 02:20:22;;;;;;;5.47;4.20;;;6.40;89.60;;;;;;5002057;28;20205;-51
2022/12/04 02:23:20;;;;;;;4.60;3.60;;;6.40;89.60;;;;;;5022123;28;20411;-51
2022/12/04 02:25:58;;;;;;;5.88;4.50;;;6.40;89.60;;;;;;5037334;28;20228;-51
2022/12/04 02:28:34;;;;;;;4.30;3.08;;;6.40;89.60;;;;;;5027755;28;20216;-50
2022/12/04 02:31:05;;;;;;;3.88;2.95;;;6.40;89.60;;;;;;5013150;28;20208;-50
2022/12/04 02:33:39;;;;;;;5.22;3.60;;;6.40;89.70;;;;;;5027977;28;20309;-51
2022/12/04 02:36:15;;;;;;;6.28;4.43;;;6.40;89.60;;;;;;5059349;28;20238;-50
2022/12/04 02:38:47;;;;;;;4.70;3.50;;;6.40;89.60;;;;;;5027755;28;20216;-50
2022/12/04 02:41:24;;;;;;;5.75;3.90;;;6.40;89.60;;;;;;5028701;28;20193;-49
2022/12/04 02:43:59;;;;;;;5.63;3.75;;;6.40;89.60;;;;;;5028391;28;20485;-50
2022/12/04 02:46:34;;;;;;;4.78;3.58;;;6.40;89.60;;;;;;5026583;28;20221;-50
2022/12/04 02:49:08;;;;;;;5.80;4.03;;;6.40;89.60;;;;;;5007787;28;20496;-49
2022/12/04 02:51:43;;;;;;;5.03;3.95;;;6.40;89.60;;;;;;5008448;28;20565;-51
2022/12/04 02:54:19;;;;;;;6.25;4.07;;;6.40;89.60;;;;;;5006732;28;20213;-51
2022/12/04 02:56:51;;;;;;;5.60;3.60;;;6.40;89.70;;;;;;4991752;28;20223;-49
2022/12/04 02:59:26;;;;;;;6.95;4.50;;;6.40;89.50;;;;;;5006919;28;20653;-50
2022/12/04 03:02:00;;;;;;;3.90;3.08;;;6.40;89.40;;;;;;5004639;28;20193;-50
2022/12/04 03:04:30;;;;;;;5.60;3.42;;;6.40;89.60;;;;;;5014898;28;20797;-50
2022/12/04 03:07:03;;;;;;;4.38;3.55;;;6.40;89.50;;;;;;5011152;28;20776;-51
2022/12/04 03:09:38;;;;;;;4.95;3.42;;;6.40;89.40;;;;;;5024099;28;20607;-50
2022/12/04 03:12:10;;;;;;;4.40;3.40;;;6.40;89.40;;;;;;5028214;28;20213;-49
2022/12/04 03:14:43;;;;;;;5.25;3.55;;;6.40;89.50;;;;;;5029553;28;20536;-51
2022/12/04 03:17:18;;;;;;;5.60;3.88;;;6.40;89.20;;;;;;5027181;28;20228;-49
2022/12/04 03:19:51;;;;;;;5.93;4.40;;;6.40;89.50;;;;;;5027467;28;20717;-50
2022/12/04 03:22:22;;;;;;;6.32;4.45;;;6.40;89.40;;;;;;5032934;28;20272;-51
2022/12/04 03:24:53;;;;;;;5.88;4.07;;;6.40;89.40;;;;;;5023873;28;20433;-51
2022/12/04 03:27:29;;;;;;;5.13;3.67;;;6.40;89.40;;;;;;5043445;28;20260;-49
2022/12/04 03:30:04;;;;;;;7.07;4.22;;;6.40;89.50;;;;;;5026459;28;20193;-49
2022/12/04 03:32:38;;;;;;;4.80;3.20;;;6.40;90.20;;;;;;5021184;28;20247;-51
2022/12/04 03:35:13;;;;;;;5.22;3.72;;;6.30;89.40;;;;;;5028380;28;20212;-49
2022/12/04 03:37:50;;;;;;;5.53;4.00;;;6.40;89.50;;;;;;5019236;28;20245;-50
2022/12/04 03:40:26;;;;;;;6.35;3.80;;;6.40;89.50;;;;;;5014459;28;20197;-51
2022/12/04 03:43:00;;;;;;;4.55;4.13;;;6.30;89.30;;;;;;5007075;28;20743;-50
2022/12/04 03:45:39;;;;;;;5.05;3.78;;;6.30;89.30;;;;;;5006226;28;20198;-50
2022/12/04 03:48:13;;;;;;;5.10;3.95;;;6.40;89.50;;;;;;5004290;28;20672;-51
2022/12/04 03:50:53;;;;;;;5.35;4.05;;;6.30;89.40;;;;;;5007268;28;20194;-51
2022/12/04 03:53:31;;;;;;;5.75;3.53;;;6.40;89.50;;;;;;5005731;28;20226;-49
2022/12/04 03:56:06;;;;;;;4.38;3.88;;;6.30;89.40;;;;;;5007277;28;20202;-50
2022/12/04 03:58:39;;;;;;;5.03;3.95;;;6.30;89.20;;;;;;5029100;28;20744;-50
2022/12/04 04:01:12;;;;;;;4.30;3.10;;;6.30;89.40;;;;;;5006330;28;20255;-50
2022/12/04 04:03:44;;;;;;;5.95;3.95;;;6.30;89.40;;;;;;5031517;28;20283;-49
2022/12/04 04:06:17;;;;;;;4.10;3.53;;;6.30;89.30;;;;;;5026266;28;20284;-51
2022/12/04 04:08:50;;;;;;;4.63;3.80;;;6.30;89.30;;;;;;5053821;28;20567;-48
2022/12/04 04:11:22;;;;;;;5.60;3.33;;;6.30;89.30;;;;;;5027321;28;20220;-50
2022/12/04 04:25:15;;;;;;;5.07;3.67;;;6.30;88.80;;;;;;5046252;28;20220;-50
2022/12/04 04:27:50;;;;;;;3.78;3.40;;;6.30;89.20;;;;;;5022310;28;20222;-48
2022/12/04 04:30:20;;;;;;;4.88;3.72;;;6.30;89.20;;;;;;5004411;28;20280;-49
2022/12/04 04:32:59;;;;;;;5.10;3.53;;;6.30;89.30;;;;;;5024555;28;20239;-49
2022/12/04 04:35:37;;;;;;;5.40;3.92;;;6.30;89.30;;;;;;5006588;28;20660;-50
2022/12/04 04:38:12;;;;;;;5.60;3.60;;;6.30;89.40;;;;;;4998427;28;20316;-51
2022/12/04 04:40:51;;;;;;;6.45;3.65;;;6.30;89.30;;;;;;5000568;28;20202;-51
2022/12/04 04:43:25;;;;;;;4.93;3.47;;;6.30;89.40;;;;;;5006729;28;20217;-49
2022/12/04 04:45:58;;;;;;;4.55;3.97;;;6.30;89.30;;;;;;5006889;28;20251;-50
2022/12/04 04:48:34;;;;;;;4.63;3.55;;;6.30;89.30;;;;;;5024286;28;20217;-50
2022/12/04 04:51:04;;;;;;;4.75;3.65;;;6.30;89.40;;;;;;5026605;28;20315;-51
2022/12/04 04:53:39;;;;;;;4.00;3.08;;;6.30;89.30;;;;;;4999973;28;20304;-50
2022/12/04 04:56:09;;;;;;;4.72;3.70;;;6.30;89.30;;;;;;5023045;28;20181;-50
2022/12/04 04:58:37;;;;;;;4.90;3.53;;;6.30;89.30;;;;;;5030285;28;20226;-50
2022/12/04 05:01:08;;;;;;;5.38;3.78;;;6.30;89.30;;;;;;5005448;28;20208;-49
2022/12/04 05:03:38;;;;;;;6.28;4.50;;;6.30;89.30;;;;;;5007111;28;20716;-51
2022/12/04 05:06:07;;;;;;;4.30;3.38;;;6.30;89.30;;;;;;5008015;28;20190;-49
2022/12/04 05:08:36;;;;;;;4.40;3.13;;;6.30;89.20;;;;;;5006543;28;20699;-50
2022/12/04 05:11:06;;;;;;;4.80;3.45;;;6.30;89.20;;;;;;5022964;28;20197;-49
2022/12/04 05:13:34;;;;;;;4.97;3.90;;;6.30;89.00;;;;;;5006751;28;20244;-51
2022/12/04 05:16:06;;;;;;;4.78;3.53;;;6.30;89.30;;;;;;5006184;28;20209;-49
2022/12/04 05:18:35;;;;;;;4.78;4.05;;;6.30;89.10;;;;;;5001272;28;20234;-52
2022/12/04 05:21:07;;;;;;;4.40;3.70;;;6.30;90.10;;;;;;5003246;28;20197;-49
2022/12/04 05:23:35;;;;;;;4.35;3.55;;;6.30;89.10;;;;;;5025729;28;20295;-49
2022/12/04 05:26:05;;;;;;;4.95;3.20;;;6.30;89.10;;;;;;5026140;28;20189;-50
2022/12/04 05:28:34;;;;;;;3.90;3.28;;;6.30;89.20;;;;;;5000849;28;20284;-49
2022/12/04 05:31:03;;;;;;;4.35;3.95;;;6.30;89.00;;;;;;4993073;28;20206;-51
2022/12/04 05:33:32;;;;;;;6.95;4.25;;;6.30;88.70;;;;;;5005526;28;20221;-49
2022/12/04 05:36:02;;;;;;;3.20;2.90;;;6.30;88.90;;;;;;4998426;28;20195;-49
2022/12/04 05:38:33;;;;;;;7.15;4.00;;;6.30;89.10;;;;;;5052034;28;20467;-50
2022/12/04 05:41:03;;;;;;;4.47;4.07;;;6.30;89.20;;;;;;5033326;28;20215;-51
2022/12/04 05:43:34;;;;;;;5.15;4.15;;;6.30;89.20;;;;;;5005608;28;20712;-49
2022/12/04 05:46:03;;;;;;;4.60;2.75;;;6.30;89.10;;;;;;5004380;28;20201;-51
2022/12/04 05:48:34;;;;;;;4.68;3.17;;;6.30;89.20;;;;;;5018352;28;20709;-50
2022/12/04 05:51:06;;;;;;;4.53;3.53;;;6.30;89.10;;;;;;5032763;28;20193;-51
2022/12/04 05:53:36;;;;;;;5.43;3.40;;;6.30;89.00;;;;;;5024124;28;20298;-50
2022/12/04 05:56:06;;;;;;;5.47;4.50;;;6.30;89.20;;;;;;5041928;28;20189;-51
2022/12/04 05:58:39;;;;;;;4.97;3.70;;;6.30;88.60;;;;;;5025105;28;20221;-48
2022/12/04 06:01:10;;;;;;;4.97;4.10;;;6.30;89.00;;;;;;5030888;28;20274;-50
2022/12/04 06:03:38;;;;;;;3.95;3.00;;;6.20;88.90;;;;;;5025194;28;20573;-50
2022/12/04 06:06:12;;;;;;;6.30;4.28;;;6.20;89.00;;;;;;5017647;28;20668;-50
2022/12/04 06:08:56;;;;;;;5.03;4.00;;;6.20;90.10;;;;;;5032613;28;20227;-50
2022/12/04 06:11:26;;;;;;;6.82;4.80;;;6.20;88.90;;;;;;5029168;28;20585;-48
2022/12/04 06:13:55;;;;;;;5.68;4.00;;;6.20;88.60;;;;;;5058506;28;20217;-51
2022/12/04 06:16:25;;;;;;;4.80;3.47;;;6.20;88.70;;;;;;5026618;28;20739;-50
2022/12/04 06:18:57;;;;;;;5.68;4.13;;;6.20;88.60;;;;;;5058260;28;20200;-50
2022/12/04 06:21:28;;;;;;;4.97;3.60;;;6.20;88.30;;;;;;5017362;28;20194;-51
2022/12/04 06:23:59;;;;;;;4.45;3.00;;;6.20;88.10;;;;;;5025057;28;20220;-49
2022/12/04 06:26:27;;;;;;;6.70;4.35;;;6.20;88.70;;;;;;5022428;28;20232;-49
2022/12/04 06:28:57;;;;;;;3.75;3.15;;;6.20;87.80;;;;;;5005430;28;20589;-48
2022/12/04 06:31:28;;;;;;;6.10;3.90;;;6.20;88.30;;;;;;4999088;28;20256;-50
2022/12/04 06:33:58;;;;;;;4.85;3.55;;;6.20;88.10;;;;;;5005752;28;20692;-50
2022/12/04 06:36:26;;;;;;;5.70;3.80;;;6.20;88.40;;;;;;5005715;28;20213;-50
2022/12/04 06:38:56;;;;;;;6.03;4.38;;;6.20;88.60;;;;;;5004186;28;20201;-51
2022/12/04 06:41:28;;;;;;;4.78;3.53;;;6.20;88.20;;;;;;5005608;28;20194;-51
2022/12/04 06:43:57;;;;;;;4.88;3.85;;;6.20;88.50;;;;;;4998435;28;20691;-51
2022/12/04 06:46:28;;;;;;;6.35;4.80;;;6.20;88.30;;;;;;5036362;28;20194;-50
2022/12/04 06:48:58;;;;;;;8.82;4.75;;;6.20;87.70;;;;;;5005429;28;20217;-49
2022/12/04 06:51:30;;;;;;;4.70;3.35;;;6.20;88.00;;;;;;5004773;28;20281;-50
2022/12/04 06:53:59;;;;;;;5.57;3.90;;;6.20;88.30;;;;;;5002717;28;20272;-49
2022/12/04 06:56:31;;;;;;;6.65;3.92;;;6.20;87.80;;;;;;5014176;28;20233;-50
2022/12/04 06:59:04;;;;;;;5.43;3.70;;;6.20;88.10;;;;;;5024407;28;20285;-49
2022/12/04 07:01:34;;;;;;;5.55;3.53;;;6.20;88.30;;;;;;5059413;28;20204;-50
2022/12/04 07:04:04;;;;;;;5.20;4.13;;;6.20;88.40;;;;;;5031834;28;20224;-50
2022/12/04 07:06:34;;;;;;;5.55;3.92;;;6.20;88.40;;;;;;5024040;28;20252;-50
2022/12/04 07:09:05;;;;;;;6.20;4.40;;;6.20;88.20;;;;;;5020991;28;20204;-50
2022/12/04 07:11:37;;;;;;;4.10;3.70;;;6.20;88.50;;;;;;5027675;28;20197;-50
2022/12/04 07:14:06;;;;;;;4.85;3.25;;;6.20;88.00;;;;;;5029942;28;20249;-53
2022/12/04 07:16:35;;;;;;;5.20;3.50;;;6.20;88.40;;;;;;5026672;28;20739;-50
2022/12/04 07:19:09;;;;;;;4.65;3.60;;;6.20;88.50;;;;;;5032286;28;20189;-49
2022/12/04 07:21:38;;;;;;;4.35;3.10;;;6.20;88.60;;;;;;5018939;28;20189;-49
2022/12/04 07:24:07;;;;;;;6.13;3.60;;;6.20;88.60;;;;;;5027914;28;20208;-50
2022/12/04 07:26:38;;;;;;;4.88;3.80;;;6.20;88.50;;;;;;5028972;28;20533;-49
2022/12/04 07:29:07;;;;;;;4.47;3.10;;;6.20;88.60;;;;;;5033403;28;20694;-49
2022/12/04 07:31:36;;;;;;;5.80;3.70;;;6.20;88.70;;;;;;5022151;28;20696;-50
2022/12/04 07:34:05;;;;;;;4.50;3.70;;;6.20;88.60;;;;;;5025249;28;20696;-50
2022/12/04 07:36:33;;;;;;;4.75;3.22;;;6.10;88.50;;;;;;5035202;28;20232;-49
2022/12/04 07:39:02;;;;;;;4.63;3.65;;;6.20;88.60;;;;;;5034967;28;20192;-48
2022/12/04 07:41:33;;;;;;;4.28;3.40;;;6.20;88.60;;;;;;5026883;28;20472;-50
2022/12/04 07:44:08;;;;;;;4.13;3.45;;;6.20;88.60;;;;;;5024234;28;20591;-48
2022/12/04 07:46:36;;;;;;;4.10;3.33;;;6.20;87.50;;;;;;5023378;28;20232;-50
2022/12/04 07:49:05;;;;;;;6.75;5.28;;;6.20;88.10;;;;;;5050296;28;20429;-49
2022/12/04 07:51:33;;;;;;;6.95;4.50;;;6.10;86.50;;;;;;5034747;28;20200;-49
2022/12/04 07:54:02;;;;;;;11.95;6.55;;;6.10;86.90;;;;;;5029069;28;20241;-49
2022/12/04 07:56:32;;;;;;;7.07;5.28;;;6.20;87.30;;;;;;5024294;28;20319;-49
2022/12/04 07:59:00;;;;;;;8.02;6.00;;;6.10;88.10;;;;;;5026888;28;20178;-51
2022/12/04 08:01:31;;;;;;;6.47;4.85;;;6.10;86.70;;;;;;5024573;28;20262;-50
2022/12/04 08:04:01;;;;;;;7.40;5.47;;;6.10;86.70;;;;;;5022825;28;20688;-49
2022/12/04 08:06:33;;;;;;;5.95;5.15;;;6.10;87.00;;;;;;5027506;28;20197;-50
2022/12/04 08:09:01;;;;;;;8.02;4.97;;;6.10;86.90;;;;;;5024629;28;20766;-50
2022/12/04 08:11:36;;;;;;;7.30;5.07;;;6.10;87.00;;;;;;5026459;28;20231;-49
2022/12/04 08:14:07;;;;;;;7.57;4.93;;;6.10;87.00;;;;;;5063558;28;20810;-50
2022/12/04 08:16:37;;;;;;;6.63;4.30;;;6.10;88.30;;;;;;5027094;28;20267;-48
2022/12/04 08:19:06;;;;;;;6.88;4.82;;;6.10;87.10;;;;;;5028192;28;20385;-51
2022/12/04 08:21:34;;;;;;;7.10;4.40;;;6.10;86.90;;;;;;5031406;28;20245;-49
2022/12/04 08:24:03;;;;;;;6.72;4.20;;;6.10;87.20;;;;;;5026630;28;20502;-50
2022/12/04 08:26:33;;;;;;;4.22;3.83;;;6.10;87.30;;;;;;5027298;28;20197;-50
2022/12/04 08:29:02;;;;;;;5.75;3.95;;;6.10;87.40;;;;;;5035659;28;20202;-50
2022/12/04 08:31:32;;;;;;;6.00;4.38;;;6.10;87.30;;;;;;5028487;28;20292;-49
2022/12/04 08:34:04;;;;;;;6.55;4.97;;;6.20;87.50;;;;;;5011470;28;20221;-48
2022/12/04 08:36:33;;;;;;;6.15;3.92;;;6.10;87.30;;;;;;5001995;28;20196;-52
2022/12/04 08:39:02;;;;;;;5.93;4.63;;;6.10;87.30;;;;;;5003491;28;20312;-49
2022/12/04 08:41:30;;;;;;;5.10;3.97;;;6.10;87.40;;;;;;5007495;28;20197;-50
2022/12/04 08:43:59;;;;;;;5.30;4.03;;;6.10;87.40;;;;;;5038403;28;20210;-50
2022/12/04 08:46:28;;;;;;;5.93;3.85;;;6.10;87.40;;;;;;5012185;28;20206;-49
2022/12/04 08:48:57;;;;;;;5.13;3.75;;;6.10;87.50;;;;;;5006716;28;20483;-51
2022/12/04 08:51:28;;;;;;;6.55;4.47;;;6.10;87.40;;;;;;5019696;28;20241;-49
2022/12/04 08:53:59;;;;;;;5.13;4.47;;;6.10;87.50;;;;;;5005018;28;20470;-51
2022/12/04 08:56:29;;;;;;;4.65;3.78;;;6.10;87.50;;;;;;5009750;28;20214;-50
2022/12/04 08:58:58;;;;;;;5.60;3.75;;;6.10;87.60;;;;;;5013800;28;20285;-49
2022/12/04 09:01:28;;;;;;;5.38;3.70;;;6.10;87.60;;;;;;5006413;28;20526;-51
2022/12/04 09:03:57;;;;;;;8.45;5.07;;;6.10;87.50;;;;;;5036065;28;20682;-50
2022/12/04 09:06:27;;;;;;;6.53;5.15;;;6.10;87.20;;;;;;5014703;28;20999;-51
2022/12/04 09:08:59;;;;;;;5.35;4.20;;;6.10;87.30;;;;;;5007059;28;20198;-49
2022/12/04 09:11:29;;;;;;;7.90;5.15;;;6.10;87.20;;;;;;5038566;28;20284;-48
2022/12/04 09:13:57;;;;;;;6.85;4.63;;;6.10;87.10;;;;;;5006531;28;20225;-50
2022/12/04 09:16:26;;;;;;;5.68;3.92;;;6.10;87.10;;;;;;5009334;28;20552;-50
2022/12/04 09:18:56;;;;;;;7.65;4.65;;;6.10;87.20;;;;;;5025955;28;20196;-50
2022/12/04 09:21:26;;;;;;;7.60;3.60;;;6.10;87.20;;;;;;5009490;28;20197;-49
2022/12/04 09:23:55;;;;;;;7.47;3.90;;;6.10;87.30;;;;;;5022354;28;20213;-51
2022/12/04 09:26:26;;;;;;;8.38;4.18;;;6.10;87.00;;;;;;5025092;28;20626;-52
2022/12/04 09:28:57;;;;;;;7.22;4.45;;;6.10;87.20;;;;;;4999885;28;20241;-49
2022/12/04 09:31:26;;;;;;;6.22;4.05;;;6.10;87.20;;;;;;5003663;28;20236;-49
2022/12/04 09:33:59;;;;;;;9.38;4.40;;;6.10;87.10;;;;;;5001890;28;20214;-50
2022/12/04 09:36:29;;;;;;;5.85;3.97;;;6.10;87.40;;;;;;5002114;28;20189;-51
2022/12/04 09:39:01;;;;;;;7.10;5.30;;;6.10;87.20;;;;;;5029577;28;20197;-50
2022/12/04 09:41:50;;;;;;;6.35;5.03;;;6.10;86.80;;;;;;5032019;28;20189;-51
2022/12/04 09:44:24;;;;;;;6.32;4.53;;;6.10;86.60;;;;;;5025028;28;20700;-49
2022/12/04 09:46:59;;;;;;;8.40;6.00;;;6.10;86.60;;;;;;5028106;28;20185;-50
2022/12/04 09:49:34;;;;;;;6.95;4.28;;;6.10;86.40;;;;;;5025885;28;20291;-49
2022/12/04 09:52:21;;;;;;;7.80;5.55;;;6.10;86.70;;;;;;5027085;28;20304;-48
2022/12/04 09:54:50;;;;;;;8.60;5.50;;;6.10;86.70;;;;;;5057920;28;20197;-51
2022/12/04 09:57:31;;;;;;;6.25;4.88;;;6.10;86.50;;;;;;5017613;28;20316;-48
2022/12/04 13:46:26;;;;;;;9.50;5.85;;;5.80;88.40;;;;;;5114812;27;20510;-49
2022/12/04 13:49:06;;;;;;;6.28;4.50;;;5.80;89.80;;;;;;5058148;28;20220;-49
2022/12/04 13:51:36;;;;;;;7.03;4.90;;;5.80;90.00;;;;;;5060047;28;20193;-49
2022/12/04 13:54:26;;;;;;;9.60;5.32;;;5.80;90.10;;;;;;5064988;28;20688;-51
2022/12/04 13:56:56;;;;;;;9.45;5.40;;;5.70;90.00;;;;;;5046255;28;20223;-50
2022/12/04 13:59:36;;;;;;;8.18;5.38;;;5.80;90.10;;;;;;5059391;28;20278;-49
2022/12/04 14:02:34;;;;;;;5.70;4.22;;;5.80;89.70;;;;;;5058937;28;20201;-48
2022/12/04 14:05:04;;;;;;;6.38;5.22;;;5.80;90.00;;;;;;5074014;28;20251;-50
2022/12/04 14:07:35;;;;;;;6.88;4.45;;;5.80;89.40;;;;;;5050040;28;20665;-49
2022/12/04 14:10:08;;;;;;;5.32;4.78;;;5.80;89.70;;;;;;5047847;28;20204;-52
2022/12/04 14:12:40;;;;;;;6.95;5.38;;;5.80;89.50;;;;;;5051723;28;20216;-51
2022/12/04 14:15:20;;;;;;;8.43;6.50;;;5.80;89.20;;;;;;5043637;28;20212;-49
2022/12/04 14:18:00;;;;;;;6.78;4.97;;;5.80;89.00;;;;;;5062232;28;20211;-49
2022/12/04 14:20:31;;;;;;;7.72;5.00;;;5.80;89.30;;;;;;5057741;28;20196;-50
2022/12/04 14:23:10;;;;;;;6.78;4.70;;;5.80;89.30;;;;;;5062080;28;20219;-50
2022/12/04 14:25:40;;;;;;;7.72;5.88;;;5.80;89.20;;;;;;5071552;28;20215;-50
2022/12/04 14:28:25;;;;;;;8.00;5.28;;;5.80;88.70;;;;;;5059439;28;20227;-49
2022/12/04 14:31:13;;;;;;;7.00;5.20;;;5.90;88.90;;;;;;5044902;28;20231;-48
2022/12/04 14:33:50;;;;;;;5.18;3.83;;;5.80;88.50;;;;;;5043970;28;20231;-50
2022/12/04 14:36:23;;;;;;;5.68;4.30;;;5.80;88.80;;;;;;5045323;28;20195;-49
2022/12/04 14:39:13;;;;;;;8.43;4.78;;;5.80;88.70;;;;;;5068993;28;20744;-51
2022/12/04 14:41:42;;;;;;;7.20;4.68;;;5.80;88.80;;;;;;5040132;28;20742;-49
2022/12/04 14:44:29;;;;;;;6.70;5.00;;;5.80;88.60;;;;;;5061590;28;20228;-49
2022/12/04 14:47:02;;;;;;;5.40;4.55;;;5.90;88.70;;;;;;5068247;28;20768;-49
2022/12/04 14:49:45;;;;;;;6.95;4.25;;;5.80;88.60;;;;;;5075492;28;20195;-50
2022/12/04 14:52:25;;;;;;;6.13;4.03;;;5.80;88.70;;;;;;5043020;28;20736;-49
2022/12/04 14:55:05;;;;;;;7.13;4.50;;;5.80;88.70;;;;;;5072479;28;20208;-50
2022/12/04 14:57:46;;;;;;;6.47;4.07;;;5.80;88.70;;;;;;5027111;28;20687;-49
2022/12/04 15:00:17;;;;;;;7.30;4.22;;;5.90;88.60;;;;;;5018940;28;20189;-50
2022/12/04 15:02:47;;;;;;;6.25;4.43;;;5.90;88.30;;;;;;5060972;28;20228;-49
2022/12/04 15:05:22;;;;;;;6.85;5.13;;;5.90;88.30;;;;;;5067407;28;20749;-49
2022/12/04 15:07:53;;;;;;;6.15;5.07;;;5.90;88.30;;;;;;5028691;28;20238;-49
2022/12/04 15:13:11;;;;;;;5.72;4.88;;;5.90;88.40;;;;;;5023437;28;20217;-50
2022/12/04 15:15:46;;;;;;;5.90;4.90;;;5.90;88.30;;;;;;5021984;28;20238;-49
2022/12/04 15:18:16;;;;;;;7.75;5.78;;;5.90;88.30;;;;;;5038213;28;20335;-53
2022/12/04 15:20:55;;;;;;;6.68;4.30;;;5.90;88.40;;;;;;5068226;28;20234;-50
2022/12/04 15:23:29;;;;;;;5.97;4.88;;;5.90;88.40;;;;;;5039989;28;20425;-49
2022/12/04 15:25:59;;;;;;;7.78;4.55;;;5.90;88.40;;;;;;5028220;28;20220;-49
2022/12/04 15:28:32;;;;;;;5.55;4.28;;;5.80;88.30;;;;;;5029972;28;20220;-50
2022/12/04 15:31:04;;;;;;;8.02;5.60;;;5.90;88.40;;;;;;5043572;28;20196;-50
2022/12/04 15:33:36;;;;;;;6.93;4.88;;;5.80;88.30;;;;;;5036029;28;20298;-50
2022/12/04 15:36:12;;;;;;;6.95;4.80;;;5.80;88.40;;;;;;5030605;28;20185;-51
2022/12/04 15:38:42;;;;;;;5.82;4.38;;;5.90;88.40;;;;;;5057851;28;20315;-50
2022/12/04 15:41:30;;;;;;;6.65;4.93;;;5.90;88.40;;;;;;5064912;28;20223;-49
2022/12/04 15:43:59;;;;;;;6.03;4.40;;;5.90;88.40;;;;;;5063263;28;20232;-49
2022/12/04 15:46:36;;;;;;;7.50;4.80;;;5.90;88.40;;;;;;5062259;28;20228;-51
2022/12/04 15:49:07;;;;;;;6.13;4.50;;;5.90;88.40;;;;;;5066796;28;20219;-50
2022/12/04 15:51:38;;;;;;;7.47;4.70;;;5.90;89.50;;;;;;5066293;28;20199;-50
2022/12/04 15:54:15;;;;;;;7.28;4.90;;;5.90;88.40;;;;;;5064854;28;20219;-50
2022/12/04 15:56:44;;;;;;;7.53;4.78;;;5.90;88.40;;;;;;5064998;28;20188;-49
2022/12/04 15:59:18;;;;;;;5.07;4.57;;;5.80;88.30;;;;;;5065916;28;20200;-50
2022/12/04 16:01:46;;;;;;;6.55;3.80;;;5.90;88.40;;;;;;5064525;28;20308;-50
2022/12/04 16:04:23;;;;;;;7.20;4.55;;;5.80;88.40;;;;;;5063023;28;20216;-52
2022/12/04 16:06:53;;;;;;;5.30;4.38;;;5.90;88.30;;;;;;5065366;28;20218;-50
2022/12/04 16:09:24;;;;;;;6.03;3.80;;;5.80;88.30;;;;;;5063825;28;20287;-50
2022/12/04 16:12:01;;;;;;;4.43;3.85;;;5.80;88.30;;;;;;5063943;28;20269;-49
2022/12/04 16:14:30;;;;;;;5.78;4.10;;;5.80;88.40;;;;;;5060758;28;20729;-49
2022/12/04 16:17:01;;;;;;;6.63;4.53;;;5.80;88.40;;;;;;5061492;28;20188;-51
2022/12/04 16:19:36;;;;;;;5.47;4.22;;;5.80;88.40;;;;;;5059989;28;20230;-51
2022/12/04 16:22:13;;;;;;;5.68;4.05;;;5.90;88.50;;;;;;5065571;28;20632;-50
2022/12/04 16:24:45;;;;;;;6.38;3.85;;;5.90;88.40;;;;;;5065726;28;20281;-50
2022/12/04 16:27:16;;;;;;;7.07;4.47;;;5.80;88.40;;;;;;5061401;28;20239;-50
2022/12/04 16:29:44;;;;;;;7.78;4.32;;;5.80;88.40;;;;;;5057791;28;20184;-49
2022/12/04 16:32:16;;;;;;;5.97;4.72;;;5.80;88.40;;;;;;5069595;28;20478;-49
2022/12/04 16:34:44;;;;;;;12.73;7.05;;;5.90;88.60;;;;;;5065081;28;20215;-51
2022/12/04 16:37:16;;;;;;;10.57;7.32;;;5.80;88.20;;;;;;5065993;28;20606;-50
2022/12/04 16:39:46;;;;;;;11.73;6.53;;;5.80;87.50;;;;;;5057180;28;20727;-51
2022/12/04 16:42:16;;;;;;;9.95;6.45;;;5.80;87.80;;;;;;5063010;28;20660;-51
2022/12/04 16:44:45;;;;;;;9.10;6.60;;;5.80;87.80;;;;;;5061885;28;20733;-51
2022/12/04 16:47:15;;;;;;;9.65;6.53;;;5.80;87.90;;;;;;5063611;28;20266;-49
2022/12/04 16:49:44;;;;;;;9.32;6.28;;;5.80;88.10;;;;;;5071336;28;20202;-50
2022/12/04 16:52:14;;;;;;;9.18;6.60;;;5.80;88.00;;;;;;5063070;28;20227;-49
2022/12/04 16:54:43;;;;;;;10.98;6.55;;;5.80;88.00;;;;;;5064213;28;20582;-51
2022/12/04 16:57:11;;;;;;;7.50;6.00;;;5.80;88.00;;;;;;5073444;28;20209;-50
2022/12/04 16:59:40;;;;;;;10.52;7.10;;;5.80;88.00;;;;;;5064517;28;20196;-49
2022/12/04 17:02:15;;;;;;;10.23;7.00;;;5.80;88.10;;;;;;5065244;28;20219;-50
2022/12/04 17:04:44;;;;;;;8.15;5.45;;;5.80;88.10;;;;;;5066470;28;20294;-50
2022/12/04 17:07:14;;;;;;;8.80;5.55;;;5.80;88.10;;;;;;5066222;28;20298;-50
2022/12/04 17:09:43;;;;;;;7.68;5.03;;;5.80;88.10;;;;;;5065477;28;20204;-49
2022/12/04 17:12:12;;;;;;;7.28;4.80;;;5.80;88.10;;;;;;5066161;28;20203;-51
2022/12/04 17:14:41;;;;;;;9.18;6.10;;;5.80;88.20;;;;;;5062036;28;20752;-50
2022/12/04 17:17:09;;;;;;;7.03;4.90;;;5.80;88.70;;;;;;5063518;28;20514;-50
2022/12/04 17:19:38;;;;;;;7.88;5.35;;;5.80;88.10;;;;;;5065543;28;20315;-50
2022/12/04 17:22:07;;;;;;;8.85;6.03;;;5.80;88.10;;;;;;5065920;28;20740;-51
2022/12/04 17:24:37;;;;;;;5.93;4.50;;;5.80;88.10;;;;;;5064804;28;20215;-52